sensor_id;sensor_type;location;lat;lon;timestamp;P1;durP1;ratioP1;P2;durP2;ratioP2
56631;SDS011;42503;39.928;-75.152;2022-07-23T00:00:31;11.90;;;10.73;;
56631;SDS011;42503;39.928;-75.152;2022-07-23T00:02:34;14.05;;;11.07;;
56631;SDS011;42503;39.928;-75.152;2022-07-23T00:04:38;11.75;;;10.55;;
56631;SDS011;42503;39.928;-75.152;2022-07-23T00:06:39;12.13;;;10.93;;
56631;SDS011;42503;39.928;-75.152;2022-07-23T00:08:43;13.85;;;11.23;;
56631;SDS011;42503;39.928;-75.152;2022-07-23T00:10:45;12.52;;;11.32;;
56631;SDS011;42503;39.928;-75.152;2022-07-23T00:12:46;12.30;;;11.13;;
56631;SDS011;42503;39.928;-75.152;2022-07-23T00:14:47;11.88;;;10.77;;
56631;SDS011;42503;39.928;-75.152;2022-07-23T00:16:49;12.48;;;11.27;;
56631;SDS011;42503;39.928;-75.152;2022-07-23T00:18:50;11.75;;;10.57;;
56631;SDS011;42503;39.928;-75.152;2022-07-23T00:20:51;12.65;;;11.27;;
56631;SDS011;42503;39.928;-75.152;2022-07-23T00:22:55;11.73;;;10.57;;
56631;SDS011;42503;39.928;-75.152;2022-07-23T00:24:57;12.35;;;11.15;;
56631;SDS011;42503;39.928;-75.152;2022-07-23T00:26:58;12.35;;;11.15;;
56631;SDS011;42503;39.928;-75.152;2022-07-23T00:28:59;12.70;;;11.40;;
56631;SDS011;42503;39.928;-75.152;2022-07-23T00:31:03;13.07;;;11.70;;
56631;SDS011;42503;39.928;-75.152;2022-07-23T00:33:07;13.68;;;10.90;;
56631;SDS011;42503;39.928;-75.152;2022-07-23T00:35:09;11.80;;;10.70;;
56631;SDS011;42503;39.928;-75.152;2022-07-23T00:37:10;12.10;;;10.93;;
56631;SDS011;42503;39.928;-75.152;2022-07-23T00:39:11;12.82;;;11.55;;
56631;SDS011;42503;39.928;-75.152;2022-07-23T00:41:13;13.02;;;11.73;;
56631;SDS011;42503;39.928;-75.152;2022-07-23T00:43:18;12.93;;;10.90;;
56631;SDS011;42503;39.928;-75.152;2022-07-23T00:45:21;13.75;;;11.20;;
56631;SDS011;42503;39.928;-75.152;2022-07-23T00:47:23;13.25;;;11.38;;
56631;SDS011;42503;39.928;-75.152;2022-07-23T00:49:28;12.65;;;11.32;;
56631;SDS011;42503;39.928;-75.152;2022-07-23T00:51:30;12.33;;;11.13;;
56631;SDS011;42503;39.928;-75.152;2022-07-23T00:53:32;12.65;;;11.38;;
56631;SDS011;42503;39.928;-75.152;2022-07-23T00:55:33;13.85;;;12.55;;
56631;SDS011;42503;39.928;-75.152;2022-07-23T00:57:35;12.68;;;11.45;;
56631;SDS011;42503;39.928;-75.152;2022-07-23T00:59:40;13.07;;;11.80;;
56631;SDS011;42503;39.928;-75.152;2022-07-23T01:01:41;13.50;;;12.13;;
56631;SDS011;42503;39.928;-75.152;2022-07-23T01:03:44;12.57;;;11.27;;
56631;SDS011;42503;39.928;-75.152;2022-07-23T01:05:45;13.45;;;12.15;;
56631;SDS011;42503;39.928;-75.152;2022-07-23T01:07:50;13.38;;;12.10;;
56631;SDS011;42503;39.928;-75.152;2022-07-23T01:09:55;13.27;;;11.88;;
56631;SDS011;42503;39.928;-75.152;2022-07-23T01:13:59;13.40;;;12.00;;
56631;SDS011;42503;39.928;-75.152;2022-07-23T01:16:08;13.40;;;12.05;;
56631;SDS011;42503;39.928;-75.152;2022-07-23T01:18:09;13.30;;;12.00;;
56631;SDS011;42503;39.928;-75.152;2022-07-23T01:20:11;13.27;;;11.88;;
56631;SDS011;42503;39.928;-75.152;2022-07-23T01:22:12;13.00;;;11.80;;
56631;SDS011;42503;39.928;-75.152;2022-07-23T01:24:16;12.18;;;10.98;;
56631;SDS011;42503;39.928;-75.152;2022-07-23T01:26:19;15.85;;;13.30;;
56631;SDS011;42503;39.928;-75.152;2022-07-23T01:28:23;14.15;;;11.98;;
56631;SDS011;42503;39.928;-75.152;2022-07-23T01:30:24;13.82;;;12.40;;
56631;SDS011;42503;39.928;-75.152;2022-07-23T01:32:26;13.82;;;12.23;;
56631;SDS011;42503;39.928;-75.152;2022-07-23T01:34:27;12.77;;;11.48;;
56631;SDS011;42503;39.928;-75.152;2022-07-23T01:36:28;13.13;;;11.90;;
56631;SDS011;42503;39.928;-75.152;2022-07-23T01:38:33;13.20;;;11.90;;
56631;SDS011;42503;39.928;-75.152;2022-07-23T01:40:34;13.52;;;12.23;;
56631;SDS011;42503;39.928;-75.152;2022-07-23T01:42:38;13.88;;;12.48;;
56631;SDS011;42503;39.928;-75.152;2022-07-23T01:44:39;13.57;;;12.13;;
56631;SDS011;42503;39.928;-75.152;2022-07-23T01:46:41;14.07;;;12.77;;
56631;SDS011;42503;39.928;-75.152;2022-07-23T01:48:45;13.65;;;12.35;;
56631;SDS011;42503;39.928;-75.152;2022-07-23T01:50:46;14.20;;;12.70;;
56631;SDS011;42503;39.928;-75.152;2022-07-23T01:52:48;13.18;;;11.82;;
56631;SDS011;42503;39.928;-75.152;2022-07-23T01:54:49;15.55;;;13.50;;
56631;SDS011;42503;39.928;-75.152;2022-07-23T01:56:51;12.93;;;11.73;;
56631;SDS011;42503;39.928;-75.152;2022-07-23T01:58:55;14.75;;;12.00;;
56631;SDS011;42503;39.928;-75.152;2022-07-23T02:00:59;13.45;;;12.05;;
56631;SDS011;42503;39.928;-75.152;2022-07-23T02:03:01;13.77;;;12.45;;
56631;SDS011;42503;39.928;-75.152;2022-07-23T02:05:03;13.80;;;12.45;;
56631;SDS011;42503;39.928;-75.152;2022-07-23T02:07:05;12.45;;;11.35;;
56631;SDS011;42503;39.928;-75.152;2022-07-23T02:09:06;13.40;;;12.10;;
56631;SDS011;42503;39.928;-75.152;2022-07-23T02:11:08;13.07;;;11.50;;
56631;SDS011;42503;39.928;-75.152;2022-07-23T02:13:09;13.95;;;12.27;;
56631;SDS011;42503;39.928;-75.152;2022-07-23T02:15:10;13.00;;;11.80;;
56631;SDS011;42503;39.928;-75.152;2022-07-23T02:17:12;13.68;;;12.35;;
56631;SDS011;42503;39.928;-75.152;2022-07-23T02:19:16;14.25;;;12.93;;
56631;SDS011;42503;39.928;-75.152;2022-07-23T02:21:17;12.15;;;11.07;;
56631;SDS011;42503;39.928;-75.152;2022-07-23T02:23:19;12.95;;;11.65;;
56631;SDS011;42503;39.928;-75.152;2022-07-23T02:25:23;13.77;;;12.23;;
56631;SDS011;42503;39.928;-75.152;2022-07-23T02:27:24;13.38;;;12.07;;
56631;SDS011;42503;39.928;-75.152;2022-07-23T02:29:26;13.98;;;12.68;;
56631;SDS011;42503;39.928;-75.152;2022-07-23T02:31:28;14.02;;;12.60;;
56631;SDS011;42503;39.928;-75.152;2022-07-23T02:33:29;13.65;;;12.23;;
56631;SDS011;42503;39.928;-75.152;2022-07-23T02:35:31;13.70;;;12.10;;
56631;SDS011;42503;39.928;-75.152;2022-07-23T02:37:32;13.43;;;12.10;;
56631;SDS011;42503;39.928;-75.152;2022-07-23T02:39:34;13.40;;;12.10;;
56631;SDS011;42503;39.928;-75.152;2022-07-23T02:41:36;13.45;;;12.15;;
56631;SDS011;42503;39.928;-75.152;2022-07-23T02:43:38;13.48;;;12.18;;
56631;SDS011;42503;39.928;-75.152;2022-07-23T02:45:39;13.90;;;12.50;;
56631;SDS011;42503;39.928;-75.152;2022-07-23T02:47:41;13.60;;;12.30;;
56631;SDS011;42503;39.928;-75.152;2022-07-23T02:49:42;14.13;;;12.60;;
56631;SDS011;42503;39.928;-75.152;2022-07-23T02:51:43;13.80;;;12.43;;
56631;SDS011;42503;39.928;-75.152;2022-07-23T02:53:47;13.97;;;12.50;;
56631;SDS011;42503;39.928;-75.152;2022-07-23T02:55:51;13.73;;;12.43;;
56631;SDS011;42503;39.928;-75.152;2022-07-23T02:57:55;14.77;;;13.35;;
56631;SDS011;42503;39.928;-75.152;2022-07-23T02:59:58;13.80;;;12.48;;
56631;SDS011;42503;39.928;-75.152;2022-07-23T03:02:00;13.68;;;12.35;;
56631;SDS011;42503;39.928;-75.152;2022-07-23T03:04:03;15.40;;;12.93;;
56631;SDS011;42503;39.928;-75.152;2022-07-23T03:06:05;15.05;;;13.13;;
56631;SDS011;42503;39.928;-75.152;2022-07-23T03:08:09;13.15;;;11.85;;
56631;SDS011;42503;39.928;-75.152;2022-07-23T03:10:13;13.82;;;12.43;;
56631;SDS011;42503;39.928;-75.152;2022-07-23T03:12:15;14.10;;;12.68;;
56631;SDS011;42503;39.928;-75.152;2022-07-23T03:14:19;13.80;;;12.35;;
56631;SDS011;42503;39.928;-75.152;2022-07-23T03:16:20;14.00;;;12.52;;
56631;SDS011;42503;39.928;-75.152;2022-07-23T03:18:21;13.63;;;12.25;;
56631;SDS011;42503;39.928;-75.152;2022-07-23T03:20:25;13.77;;;12.40;;
56631;SDS011;42503;39.928;-75.152;2022-07-23T03:22:29;14.27;;;12.18;;
56631;SDS011;42503;39.928;-75.152;2022-07-23T03:24:31;13.63;;;12.32;;
56631;SDS011;42503;39.928;-75.152;2022-07-23T03:26:51;14.77;;;13.27;;
56631;SDS011;42503;39.928;-75.152;2022-07-23T03:28:52;14.07;;;12.68;;
56631;SDS011;42503;39.928;-75.152;2022-07-23T03:30:53;14.73;;;13.20;;
56631;SDS011;42503;39.928;-75.152;2022-07-23T03:32:55;15.10;;;13.50;;
56631;SDS011;42503;39.928;-75.152;2022-07-23T03:34:56;14.02;;;12.52;;
56631;SDS011;42503;39.928;-75.152;2022-07-23T03:36:57;14.55;;;13.00;;
56631;SDS011;42503;39.928;-75.152;2022-07-23T03:39:01;14.43;;;13.02;;
56631;SDS011;42503;39.928;-75.152;2022-07-23T03:41:04;13.40;;;12.10;;
56631;SDS011;42503;39.928;-75.152;2022-07-23T03:43:11;14.65;;;13.27;;
56631;SDS011;42503;39.928;-75.152;2022-07-23T03:45:12;14.52;;;13.02;;
56631;SDS011;42503;39.928;-75.152;2022-07-23T03:47:13;13.77;;;12.30;;
56631;SDS011;42503;39.928;-75.152;2022-07-23T03:49:18;14.27;;;12.77;;
56631;SDS011;42503;39.928;-75.152;2022-07-23T03:51:19;13.35;;;11.95;;
56631;SDS011;42503;39.928;-75.152;2022-07-23T03:53:29;13.73;;;12.32;;
56631;SDS011;42503;39.928;-75.152;2022-07-23T03:55:31;14.20;;;12.80;;
56631;SDS011;42503;39.928;-75.152;2022-07-23T03:57:32;14.20;;;12.80;;
56631;SDS011;42503;39.928;-75.152;2022-07-23T03:59:34;13.77;;;12.38;;
56631;SDS011;42503;39.928;-75.152;2022-07-23T04:01:38;13.70;;;12.40;;
56631;SDS011;42503;39.928;-75.152;2022-07-23T04:03:39;14.65;;;13.15;;
56631;SDS011;42503;39.928;-75.152;2022-07-23T04:05:45;13.23;;;11.90;;
56631;SDS011;42503;39.928;-75.152;2022-07-23T04:07:49;13.68;;;12.32;;
56631;SDS011;42503;39.928;-75.152;2022-07-23T04:09:51;13.95;;;12.63;;
56631;SDS011;42503;39.928;-75.152;2022-07-23T04:11:53;14.52;;;13.02;;
56631;SDS011;42503;39.928;-75.152;2022-07-23T04:13:54;12.77;;;11.48;;
56631;SDS011;42503;39.928;-75.152;2022-07-23T04:15:55;13.68;;;12.20;;
56631;SDS011;42503;39.928;-75.152;2022-07-23T04:17:56;14.20;;;12.80;;
56631;SDS011;42503;39.928;-75.152;2022-07-23T04:19:58;14.30;;;12.80;;
56631;SDS011;42503;39.928;-75.152;2022-07-23T04:21:59;14.52;;;12.98;;
56631;SDS011;42503;39.928;-75.152;2022-07-23T04:24:01;14.07;;;12.68;;
56631;SDS011;42503;39.928;-75.152;2022-07-23T04:26:02;13.32;;;12.05;;
56631;SDS011;42503;39.928;-75.152;2022-07-23T04:28:04;13.57;;;12.20;;
56631;SDS011;42503;39.928;-75.152;2022-07-23T04:30:05;13.80;;;12.45;;
56631;SDS011;42503;39.928;-75.152;2022-07-23T04:32:07;13.40;;;12.02;;
56631;SDS011;42503;39.928;-75.152;2022-07-23T04:34:11;14.30;;;12.80;;
56631;SDS011;42503;39.928;-75.152;2022-07-23T04:36:13;14.75;;;13.25;;
56631;SDS011;42503;39.928;-75.152;2022-07-23T04:38:14;15.05;;;13.25;;
56631;SDS011;42503;39.928;-75.152;2022-07-23T04:40:15;12.90;;;11.70;;
56631;SDS011;42503;39.928;-75.152;2022-07-23T04:42:17;13.27;;;11.98;;
56631;SDS011;42503;39.928;-75.152;2022-07-23T04:44:18;13.05;;;11.70;;
56631;SDS011;42503;39.928;-75.152;2022-07-23T04:46:19;13.55;;;12.20;;
56631;SDS011;42503;39.928;-75.152;2022-07-23T04:48:21;13.90;;;12.60;;
56631;SDS011;42503;39.928;-75.152;2022-07-23T04:50:22;13.68;;;12.38;;
56631;SDS011;42503;39.928;-75.152;2022-07-23T04:52:26;16.00;;;13.00;;
56631;SDS011;42503;39.928;-75.152;2022-07-23T04:54:31;13.27;;;12.07;;
56631;SDS011;42503;39.928;-75.152;2022-07-23T04:56:34;13.38;;;12.18;;
56631;SDS011;42503;39.928;-75.152;2022-07-23T04:58:38;14.48;;;12.95;;
56631;SDS011;42503;39.928;-75.152;2022-07-23T05:00:40;13.75;;;12.35;;
56631;SDS011;42503;39.928;-75.152;2022-07-23T05:02:41;13.55;;;12.25;;
56631;SDS011;42503;39.928;-75.152;2022-07-23T05:04:42;13.07;;;11.88;;
56631;SDS011;42503;39.928;-75.152;2022-07-23T05:06:47;13.15;;;11.95;;
56631;SDS011;42503;39.928;-75.152;2022-07-23T05:08:51;14.75;;;13.35;;
56631;SDS011;42503;39.928;-75.152;2022-07-23T05:10:52;13.75;;;12.35;;
56631;SDS011;42503;39.928;-75.152;2022-07-23T05:12:56;13.70;;;12.32;;
56631;SDS011;42503;39.928;-75.152;2022-07-23T05:14:58;13.60;;;12.30;;
56631;SDS011;42503;39.928;-75.152;2022-07-23T05:16:59;14.15;;;12.73;;
56631;SDS011;42503;39.928;-75.152;2022-07-23T05:19:01;13.32;;;12.07;;
56631;SDS011;42503;39.928;-75.152;2022-07-23T05:21:02;13.77;;;12.48;;
56631;SDS011;42503;39.928;-75.152;2022-07-23T05:23:03;13.73;;;12.43;;
56631;SDS011;42503;39.928;-75.152;2022-07-23T05:25:06;14.60;;;13.15;;
56631;SDS011;42503;39.928;-75.152;2022-07-23T05:27:07;13.27;;;11.88;;
56631;SDS011;42503;39.928;-75.152;2022-07-23T05:29:09;13.60;;;12.40;;
56631;SDS011;42503;39.928;-75.152;2022-07-23T05:31:10;14.57;;;13.07;;
56631;SDS011;42503;39.928;-75.152;2022-07-23T05:33:11;13.35;;;12.05;;
56631;SDS011;42503;39.928;-75.152;2022-07-23T05:35:13;13.80;;;12.50;;
56631;SDS011;42503;39.928;-75.152;2022-07-23T05:37:17;13.20;;;11.90;;
56631;SDS011;42503;39.928;-75.152;2022-07-23T05:39:18;13.15;;;11.95;;
56631;SDS011;42503;39.928;-75.152;2022-07-23T05:41:20;13.90;;;12.55;;
56631;SDS011;42503;39.928;-75.152;2022-07-23T05:43:21;13.30;;;11.95;;
56631;SDS011;42503;39.928;-75.152;2022-07-23T05:45:22;13.38;;;11.93;;
56631;SDS011;42503;39.928;-75.152;2022-07-23T05:47:24;14.13;;;12.70;;
56631;SDS011;42503;39.928;-75.152;2022-07-23T05:49:28;13.85;;;12.52;;
56631;SDS011;42503;39.928;-75.152;2022-07-23T05:51:29;13.25;;;11.95;;
56631;SDS011;42503;39.928;-75.152;2022-07-23T05:53:30;14.05;;;12.75;;
56631;SDS011;42503;39.928;-75.152;2022-07-23T05:55:34;14.43;;;13.13;;
56631;SDS011;42503;39.928;-75.152;2022-07-23T05:57:38;13.52;;;12.13;;
56631;SDS011;42503;39.928;-75.152;2022-07-23T05:59:40;13.45;;;12.02;;
56631;SDS011;42503;39.928;-75.152;2022-07-23T06:01:42;13.82;;;12.43;;
56631;SDS011;42503;39.928;-75.152;2022-07-23T06:03:43;14.20;;;12.80;;
56631;SDS011;42503;39.928;-75.152;2022-07-23T06:05:44;13.65;;;12.35;;
56631;SDS011;42503;39.928;-75.152;2022-07-23T06:07:45;13.25;;;11.95;;
56631;SDS011;42503;39.928;-75.152;2022-07-23T06:09:47;14.30;;;13.00;;
56631;SDS011;42503;39.928;-75.152;2022-07-23T06:11:49;13.85;;;12.55;;
56631;SDS011;42503;39.928;-75.152;2022-07-23T06:13:51;13.80;;;12.50;;
56631;SDS011;42503;39.928;-75.152;2022-07-23T06:15:55;13.82;;;12.50;;
56631;SDS011;42503;39.928;-75.152;2022-07-23T06:17:59;14.75;;;12.82;;
56631;SDS011;42503;39.928;-75.152;2022-07-23T06:20:06;13.45;;;12.15;;
56631;SDS011;42503;39.928;-75.152;2022-07-23T06:22:08;13.32;;;12.00;;
56631;SDS011;42503;39.928;-75.152;2022-07-23T06:24:10;12.68;;;11.50;;
56631;SDS011;42503;39.928;-75.152;2022-07-23T06:26:11;13.15;;;11.95;;
56631;SDS011;42503;39.928;-75.152;2022-07-23T06:28:12;13.85;;;12.55;;
56631;SDS011;42503;39.928;-75.152;2022-07-23T06:30:14;12.98;;;11.68;;
56631;SDS011;42503;39.928;-75.152;2022-07-23T06:32:19;12.95;;;11.55;;
56631;SDS011;42503;39.928;-75.152;2022-07-23T06:34:21;13.20;;;11.80;;
56631;SDS011;42503;39.928;-75.152;2022-07-23T06:36:25;13.48;;;12.07;;
56631;SDS011;42503;39.928;-75.152;2022-07-23T06:38:27;12.75;;;11.55;;
56631;SDS011;42503;39.928;-75.152;2022-07-23T06:40:28;12.70;;;11.52;;
56631;SDS011;42503;39.928;-75.152;2022-07-23T06:42:32;13.38;;;12.00;;
56631;SDS011;42503;39.928;-75.152;2022-07-23T06:44:33;13.48;;;12.02;;
56631;SDS011;42503;39.928;-75.152;2022-07-23T06:46:35;13.13;;;11.75;;
56631;SDS011;42503;39.928;-75.152;2022-07-23T06:48:36;13.10;;;11.80;;
56631;SDS011;42503;39.928;-75.152;2022-07-23T06:50:37;12.57;;;11.30;;
56631;SDS011;42503;39.928;-75.152;2022-07-23T06:52:39;13.25;;;11.95;;
56631;SDS011;42503;39.928;-75.152;2022-07-23T06:54:40;13.55;;;12.18;;
56631;SDS011;42503;39.928;-75.152;2022-07-23T06:56:41;12.93;;;11.63;;
56631;SDS011;42503;39.928;-75.152;2022-07-23T06:58:46;13.68;;;11.95;;
56631;SDS011;42503;39.928;-75.152;2022-07-23T07:00:47;13.90;;;12.48;;
56631;SDS011;42503;39.928;-75.152;2022-07-23T07:02:48;13.50;;;12.20;;
56631;SDS011;42503;39.928;-75.152;2022-07-23T07:04:50;12.63;;;11.43;;
56631;SDS011;42503;39.928;-75.152;2022-07-23T07:06:51;13.65;;;12.25;;
56631;SDS011;42503;39.928;-75.152;2022-07-23T07:08:52;13.65;;;12.27;;
56631;SDS011;42503;39.928;-75.152;2022-07-23T07:10:54;14.05;;;12.65;;
56631;SDS011;42503;39.928;-75.152;2022-07-23T07:12:55;13.30;;;12.00;;
56631;SDS011;42503;39.928;-75.152;2022-07-23T07:14:56;14.00;;;12.60;;
56631;SDS011;42503;39.928;-75.152;2022-07-23T07:16:58;13.27;;;11.98;;
56631;SDS011;42503;39.928;-75.152;2022-07-23T07:18:59;12.45;;;11.25;;
56631;SDS011;42503;39.928;-75.152;2022-07-23T07:21:00;12.55;;;11.40;;
56631;SDS011;42503;39.928;-75.152;2022-07-23T07:23:05;12.73;;;11.32;;
56631;SDS011;42503;39.928;-75.152;2022-07-23T07:25:09;12.43;;;11.05;;
56631;SDS011;42503;39.928;-75.152;2022-07-23T07:27:10;13.00;;;11.80;;
56631;SDS011;42503;39.928;-75.152;2022-07-23T07:29:11;13.38;;;12.10;;
56631;SDS011;42503;39.928;-75.152;2022-07-23T07:31:13;13.10;;;11.80;;
56631;SDS011;42503;39.928;-75.152;2022-07-23T07:33:17;13.20;;;11.98;;
56631;SDS011;42503;39.928;-75.152;2022-07-23T07:35:21;12.95;;;11.75;;
56631;SDS011;42503;39.928;-75.152;2022-07-23T07:37:22;13.23;;;11.98;;
56631;SDS011;42503;39.928;-75.152;2022-07-23T07:39:26;13.00;;;11.43;;
56631;SDS011;42503;39.928;-75.152;2022-07-23T07:41:31;13.20;;;11.95;;
56631;SDS011;42503;39.928;-75.152;2022-07-23T07:43:32;12.70;;;11.50;;
56631;SDS011;42503;39.928;-75.152;2022-07-23T07:45:33;13.65;;;12.25;;
56631;SDS011;42503;39.928;-75.152;2022-07-23T07:47:34;12.63;;;11.52;;
56631;SDS011;42503;39.928;-75.152;2022-07-23T07:49:36;13.73;;;12.43;;
56631;SDS011;42503;39.928;-75.152;2022-07-23T07:51:37;13.77;;;12.35;;
56631;SDS011;42503;39.928;-75.152;2022-07-23T07:53:39;12.75;;;11.52;;
56631;SDS011;42503;39.928;-75.152;2022-07-23T07:55:40;13.57;;;12.27;;
56631;SDS011;42503;39.928;-75.152;2022-07-23T07:57:41;13.90;;;12.40;;
56631;SDS011;42503;39.928;-75.152;2022-07-23T07:59:43;13.38;;;12.02;;
56631;SDS011;42503;39.928;-75.152;2022-07-23T08:01:47;13.52;;;12.23;;
56631;SDS011;42503;39.928;-75.152;2022-07-23T08:03:48;13.32;;;12.02;;
56631;SDS011;42503;39.928;-75.152;2022-07-23T08:05:50;13.15;;;11.90;;
56631;SDS011;42503;39.928;-75.152;2022-07-23T08:07:51;13.35;;;12.05;;
56631;SDS011;42503;39.928;-75.152;2022-07-23T08:10:02;14.52;;;12.07;;
56631;SDS011;42503;39.928;-75.152;2022-07-23T08:12:06;12.70;;;11.55;;
56631;SDS011;42503;39.928;-75.152;2022-07-23T08:14:10;13.68;;;12.40;;
56631;SDS011;42503;39.928;-75.152;2022-07-23T08:16:15;13.45;;;12.15;;
56631;SDS011;42503;39.928;-75.152;2022-07-23T08:18:16;12.68;;;11.50;;
56631;SDS011;42503;39.928;-75.152;2022-07-23T08:20:21;12.32;;;11.13;;
56631;SDS011;42503;39.928;-75.152;2022-07-23T08:22:23;13.52;;;12.27;;
56631;SDS011;42503;39.928;-75.152;2022-07-23T08:24:24;12.85;;;11.55;;
56631;SDS011;42503;39.928;-75.152;2022-07-23T08:26:29;13.20;;;11.68;;
56631;SDS011;42503;39.928;-75.152;2022-07-23T08:28:33;12.18;;;10.98;;
56631;SDS011;42503;39.928;-75.152;2022-07-23T08:30:34;13.15;;;11.85;;
56631;SDS011;42503;39.928;-75.152;2022-07-23T08:35:05;12.93;;;11.63;;
56631;SDS011;42503;39.928;-75.152;2022-07-23T08:37:07;13.18;;;11.98;;
56631;SDS011;42503;39.928;-75.152;2022-07-23T08:39:08;12.43;;;11.32;;
56631;SDS011;42503;39.928;-75.152;2022-07-23T08:41:12;12.60;;;11.50;;
56631;SDS011;42503;39.928;-75.152;2022-07-23T08:43:32;13.07;;;11.85;;
56631;SDS011;42503;39.928;-75.152;2022-07-23T08:45:40;12.63;;;11.43;;
56631;SDS011;42503;39.928;-75.152;2022-07-23T08:47:42;12.80;;;11.60;;
56631;SDS011;42503;39.928;-75.152;2022-07-23T08:49:45;12.75;;;11.43;;
56631;SDS011;42503;39.928;-75.152;2022-07-23T08:51:47;13.43;;;12.13;;
56631;SDS011;42503;39.928;-75.152;2022-07-23T08:53:49;13.63;;;12.02;;
56631;SDS011;42503;39.928;-75.152;2022-07-23T08:55:52;12.30;;;11.20;;
56631;SDS011;42503;39.928;-75.152;2022-07-23T08:57:54;13.32;;;11.60;;
56631;SDS011;42503;39.928;-75.152;2022-07-23T08:59:56;13.35;;;11.98;;
56631;SDS011;42503;39.928;-75.152;2022-07-23T09:01:58;13.23;;;11.77;;
56631;SDS011;42503;39.928;-75.152;2022-07-23T09:04:01;13.57;;;12.18;;
56631;SDS011;42503;39.928;-75.152;2022-07-23T09:06:05;12.82;;;11.63;;
56631;SDS011;42503;39.928;-75.152;2022-07-23T09:08:10;13.32;;;11.90;;
56631;SDS011;42503;39.928;-75.152;2022-07-23T09:10:13;12.10;;;10.98;;
56631;SDS011;42503;39.928;-75.152;2022-07-23T09:12:14;12.50;;;11.23;;
56631;SDS011;42503;39.928;-75.152;2022-07-23T09:14:16;12.40;;;11.20;;
56631;SDS011;42503;39.928;-75.152;2022-07-23T09:16:36;12.15;;;11.02;;
56631;SDS011;42503;39.928;-75.152;2022-07-23T09:18:47;11.30;;;10.10;;
56631;SDS011;42503;39.928;-75.152;2022-07-23T09:20:49;12.65;;;11.32;;
56631;SDS011;42503;39.928;-75.152;2022-07-23T09:23:05;12.45;;;11.27;;
56631;SDS011;42503;39.928;-75.152;2022-07-23T09:25:16;12.60;;;11.40;;
56631;SDS011;42503;39.928;-75.152;2022-07-23T09:27:22;12.30;;;11.10;;
56631;SDS011;42503;39.928;-75.152;2022-07-23T09:29:54;12.80;;;11.50;;
56631;SDS011;42503;39.928;-75.152;2022-07-23T09:31:58;13.02;;;11.45;;
56631;SDS011;42503;39.928;-75.152;2022-07-23T09:34:11;12.80;;;11.57;;
56631;SDS011;42503;39.928;-75.152;2022-07-23T09:36:14;12.20;;;11.10;;
56631;SDS011;42503;39.928;-75.152;2022-07-23T09:38:17;12.85;;;11.07;;
56631;SDS011;42503;39.928;-75.152;2022-07-23T09:40:19;13.40;;;11.68;;
56631;SDS011;42503;39.928;-75.152;2022-07-23T09:42:22;12.90;;;11.63;;
56631;SDS011;42503;39.928;-75.152;2022-07-23T09:44:24;11.40;;;10.23;;
56631;SDS011;42503;39.928;-75.152;2022-07-23T09:46:28;12.85;;;11.65;;
56631;SDS011;42503;39.928;-75.152;2022-07-23T09:48:30;12.70;;;11.50;;
56631;SDS011;42503;39.928;-75.152;2022-07-23T09:50:33;12.10;;;11.00;;
56631;SDS011;42503;39.928;-75.152;2022-07-23T09:52:35;12.32;;;11.13;;
56631;SDS011;42503;39.928;-75.152;2022-07-23T09:54:43;12.20;;;11.00;;
56631;SDS011;42503;39.928;-75.152;2022-07-23T09:56:44;11.82;;;10.73;;
56631;SDS011;42503;39.928;-75.152;2022-07-23T09:58:45;12.05;;;10.85;;
56631;SDS011;42503;39.928;-75.152;2022-07-23T10:01:03;12.45;;;11.15;;
56631;SDS011;42503;39.928;-75.152;2022-07-23T10:03:07;13.40;;;12.10;;
56631;SDS011;42503;39.928;-75.152;2022-07-23T10:05:10;11.90;;;10.77;;
56631;SDS011;42503;39.928;-75.152;2022-07-23T10:07:14;13.05;;;11.75;;
56631;SDS011;42503;39.928;-75.152;2022-07-23T10:09:21;12.20;;;11.00;;
56631;SDS011;42503;39.928;-75.152;2022-07-23T10:11:29;11.73;;;10.48;;
56631;SDS011;42503;39.928;-75.152;2022-07-23T10:13:32;11.80;;;10.68;;
56631;SDS011;42503;39.928;-75.152;2022-07-23T10:15:52;11.90;;;10.70;;
56631;SDS011;42503;39.928;-75.152;2022-07-23T10:17:55;12.10;;;10.90;;
56631;SDS011;42503;39.928;-75.152;2022-07-23T10:19:56;13.57;;;11.63;;
56631;SDS011;42503;39.928;-75.152;2022-07-23T10:22:14;12.70;;;11.38;;
56631;SDS011;42503;39.928;-75.152;2022-07-23T10:29:18;12.93;;;11.60;;
56631;SDS011;42503;39.928;-75.152;2022-07-23T10:36:15;12.68;;;11.27;;
56631;SDS011;42503;39.928;-75.152;2022-07-23T10:38:30;11.80;;;10.68;;
56631;SDS011;42503;39.928;-75.152;2022-07-23T10:40:54;13.13;;;11.82;;
56631;SDS011;42503;39.928;-75.152;2022-07-23T10:42:58;12.48;;;11.25;;
56631;SDS011;42503;39.928;-75.152;2022-07-23T10:45:03;13.32;;;11.93;;
56631;SDS011;42503;39.928;-75.152;2022-07-23T10:47:27;13.10;;;11.75;;
56631;SDS011;42503;39.928;-75.152;2022-07-23T10:49:42;12.48;;;11.25;;
56631;SDS011;42503;39.928;-75.152;2022-07-23T10:54:06;11.90;;;10.77;;
56631;SDS011;42503;39.928;-75.152;2022-07-23T10:59:06;12.25;;;11.05;;
56631;SDS011;42503;39.928;-75.152;2022-07-23T11:03:39;12.45;;;11.15;;
56631;SDS011;42503;39.928;-75.152;2022-07-23T11:05:43;12.48;;;11.27;;
56631;SDS011;42503;39.928;-75.152;2022-07-23T11:10:11;12.43;;;11.25;;
56631;SDS011;42503;39.928;-75.152;2022-07-23T11:12:39;11.63;;;10.52;;
56631;SDS011;42503;39.928;-75.152;2022-07-23T11:15:01;11.93;;;10.73;;
56631;SDS011;42503;39.928;-75.152;2022-07-23T11:17:18;12.48;;;11.27;;
56631;SDS011;42503;39.928;-75.152;2022-07-23T11:19:21;12.32;;;11.13;;
56631;SDS011;42503;39.928;-75.152;2022-07-23T11:25:59;11.75;;;10.15;;
56631;SDS011;42503;39.928;-75.152;2022-07-23T11:32:29;11.45;;;10.35;;
56631;SDS011;42503;39.928;-75.152;2022-07-23T11:34:43;11.27;;;10.05;;
56631;SDS011;42503;39.928;-75.152;2022-07-23T11:36:50;15.25;;;11.70;;
56631;SDS011;42503;39.928;-75.152;2022-07-23T11:38:51;11.13;;;10.02;;
56631;SDS011;42503;39.928;-75.152;2022-07-23T11:40:55;11.20;;;10.02;;
56631;SDS011;42503;39.928;-75.152;2022-07-23T11:45:07;11.45;;;9.90;;
56631;SDS011;42503;39.928;-75.152;2022-07-23T11:47:10;11.35;;;10.25;;
56631;SDS011;42503;39.928;-75.152;2022-07-23T11:49:16;12.43;;;10.18;;
56631;SDS011;42503;39.928;-75.152;2022-07-23T11:51:24;12.32;;;11.02;;
56631;SDS011;42503;39.928;-75.152;2022-07-23T11:53:33;10.73;;;9.63;;
56631;SDS011;42503;39.928;-75.152;2022-07-23T11:55:35;10.65;;;9.60;;
56631;SDS011;42503;39.928;-75.152;2022-07-23T11:57:39;12.13;;;10.77;;
56631;SDS011;42503;39.928;-75.152;2022-07-23T12:01:56;13.73;;;10.43;;
56631;SDS011;42503;39.928;-75.152;2022-07-23T12:04:02;11.45;;;10.35;;
56631;SDS011;42503;39.928;-75.152;2022-07-23T12:06:06;11.50;;;10.05;;
56631;SDS011;42503;39.928;-75.152;2022-07-23T12:08:08;10.30;;;9.30;;
56631;SDS011;42503;39.928;-75.152;2022-07-23T12:12:16;13.80;;;9.93;;
56631;SDS011;42503;39.928;-75.152;2022-07-23T12:14:18;10.20;;;9.20;;
56631;SDS011;42503;39.928;-75.152;2022-07-23T12:16:22;9.98;;;9.07;;
56631;SDS011;42503;39.928;-75.152;2022-07-23T12:18:26;11.25;;;10.07;;
56631;SDS011;42503;39.928;-75.152;2022-07-23T12:20:33;10.85;;;9.75;;